sensor_id;sensor_type;location;lat;lon;timestamp;temperature;humidity
1355;DHT22;671;48.972;9.276;2023-04-25T00:02:36;10.50;99.90
1355;DHT22;671;48.972;9.276;2023-04-25T00:05:23;10.40;99.90
1355;DHT22;671;48.972;9.276;2023-04-25T00:08:09;10.30;99.90
1355;DHT22;671;48.972;9.276;2023-04-25T00:10:55;10.30;99.90
1355;DHT22;671;48.972;9.276;2023-04-25T00:13:41;10.30;99.90
1355;DHT22;671;48.972;9.276;2023-04-25T00:16:27;10.30;99.90
1355;DHT22;671;48.972;9.276;2023-04-25T00:19:14;10.30;99.90
1355;DHT22;671;48.972;9.276;2023-04-25T00:22:00;10.30;99.90
1355;DHT22;671;48.972;9.276;2023-04-25T00:24:46;10.40;99.90
1355;DHT22;671;48.972;9.276;2023-04-25T00:27:32;10.30;99.90
1355;DHT22;671;48.972;9.276;2023-04-25T00:30:18;10.30;99.90
1355;DHT22;671;48.972;9.276;2023-04-25T00:33:04;10.40;99.90
1355;DHT22;671;48.972;9.276;2023-04-25T00:35:50;10.40;99.90
1355;DHT22;671;48.972;9.276;2023-04-25T00:38:36;10.40;99.90
1355;DHT22;671;48.972;9.276;2023-04-25T00:41:25;10.40;99.90
1355;DHT22;671;48.972;9.276;2023-04-25T00:44:11;10.40;99.90
1355;DHT22;671;48.972;9.276;2023-04-25T00:46:58;10.30;99.90
1355;DHT22;671;48.972;9.276;2023-04-25T00:49:44;10.30;99.90
1355;DHT22;671;48.972;9.276;2023-04-25T00:52:29;10.20;99.90
1355;DHT22;671;48.972;9.276;2023-04-25T00:55:15;10.20;99.90
1355;DHT22;671;48.972;9.276;2023-04-25T00:58:02;10.10;99.90
1355;DHT22;671;48.972;9.276;2023-04-25T01:00:49;10.00;99.90
1355;DHT22;671;48.972;9.276;2023-04-25T01:03:38;10.00;99.90
1355;DHT22;671;48.972;9.276;2023-04-25T01:06:28;10.00;99.90
1355;DHT22;671;48.972;9.276;2023-04-25T01:09:14;9.90;99.90
1355;DHT22;671;48.972;9.276;2023-04-25T01:12:00;9.90;99.90
1355;DHT22;671;48.972;9.276;2023-04-25T01:14:47;9.80;99.90
1355;DHT22;671;48.972;9.276;2023-04-25T01:17:34;9.80;99.90
1355;DHT22;671;48.972;9.276;2023-04-25T01:20:22;9.70;99.90
1355;DHT22;671;48.972;9.276;2023-04-25T01:23:09;9.70;99.90
1355;DHT22;671;48.972;9.276;2023-04-25T01:25:55;9.70;99.90
1355;DHT22;671;48.972;9.276;2023-04-25T01:28:41;9.70;99.90
1355;DHT22;671;48.972;9.276;2023-04-25T01:31:28;9.70;99.90
1355;DHT22;671;48.972;9.276;2023-04-25T01:34:14;9.60;99.90
1355;DHT22;671;48.972;9.276;2023-04-25T01:37:00;9.60;99.90
1355;DHT22;671;48.972;9.276;2023-04-25T01:39:49;9.70;99.90
1355;DHT22;671;48.972;9.276;2023-04-25T01:42:39;9.70;99.90
1355;DHT22;671;48.972;9.276;2023-04-25T01:45:25;9.70;99.90
1355;DHT22;671;48.972;9.276;2023-04-25T01:48:13;9.70;99.90
1355;DHT22;671;48.972;9.276;2023-04-25T01:50:59;9.80;99.90
1355;DHT22;671;48.972;9.276;2023-04-25T01:53:45;9.80;99.90
1355;DHT22;671;48.972;9.276;2023-04-25T01:56:32;9.80;99.90
1355;DHT22;671;48.972;9.276;2023-04-25T01:59:19;9.80;99.90
1355;DHT22;671;48.972;9.276;2023-04-25T02:02:07;9.80;99.90
1355;DHT22;671;48.972;9.276;2023-04-25T02:04:53;9.80;99.90
1355;DHT22;671;48.972;9.276;2023-04-25T02:07:40;9.80;99.90
1355;DHT22;671;48.972;9.276;2023-04-25T02:10:26;9.80;99.90
1355;DHT22;671;48.972;9.276;2023-04-25T02:13:11;9.70;99.90
1355;DHT22;671;48.972;9.276;2023-04-25T02:15:57;9.80;99.90
1355;DHT22;671;48.972;9.276;2023-04-25T02:18:43;9.80;99.90
1355;DHT22;671;48.972;9.276;2023-04-25T02:21:30;9.70;99.90
1355;DHT22;671;48.972;9.276;2023-04-25T02:24:17;9.70;99.90
1355;DHT22;671;48.972;9.276;2023-04-25T02:27:02;9.60;99.90
1355;DHT22;671;48.972;9.276;2023-04-25T02:29:48;9.60;99.90
1355;DHT22;671;48.972;9.276;2023-04-25T02:32:34;9.60;99.90
1355;DHT22;671;48.972;9.276;2023-04-25T02:35:20;9.50;99.90
1355;DHT22;671;48.972;9.276;2023-04-25T02:38:06;9.60;99.90
1355;DHT22;671;48.972;9.276;2023-04-25T02:40:52;9.60;99.90
1355;DHT22;671;48.972;9.276;2023-04-25T02:43:38;9.60;99.90
1355;DHT22;671;48.972;9.276;2023-04-25T02:46:24;9.70;99.90
1355;DHT22;671;48.972;9.276;2023-04-25T02:49:10;9.70;99.90
1355;DHT22;671;48.972;9.276;2023-04-25T02:51:56;9.80;99.90
1355;DHT22;671;48.972;9.276;2023-04-25T02:54:42;9.80;99.90
1355;DHT22;671;48.972;9.276;2023-04-25T02:57:28;9.90;99.90
1355;DHT22;671;48.972;9.276;2023-04-25T03:00:14;9.90;99.90
1355;DHT22;671;48.972;9.276;2023-04-25T03:03:00;10.00;99.90
1355;DHT22;671;48.972;9.276;2023-04-25T03:05:45;10.00;99.90
1355;DHT22;671;48.972;9.276;2023-04-25T03:08:32;10.00;99.90
1355;DHT22;671;48.972;9.276;2023-04-25T03:11:19;10.10;99.90
1355;DHT22;671;48.972;9.276;2023-04-25T03:14:05;10.00;99.90
1355;DHT22;671;48.972;9.276;2023-04-25T03:16:51;10.00;99.90
1355;DHT22;671;48.972;9.276;2023-04-25T03:19:37;10.00;99.90
1355;DHT22;671;48.972;9.276;2023-04-25T03:22:24;10.00;99.90
1355;DHT22;671;48.972;9.276;2023-04-25T03:25:10;9.90;99.90
1355;DHT22;671;48.972;9.276;2023-04-25T03:27:56;9.80;99.90
1355;DHT22;671;48.972;9.276;2023-04-25T03:30:41;9.90;99.90
1355;DHT22;671;48.972;9.276;2023-04-25T03:33:27;9.80;99.90
1355;DHT22;671;48.972;9.276;2023-04-25T03:36:13;9.80;99.90
1355;DHT22;671;48.972;9.276;2023-04-25T03:38:59;9.80;99.90
1355;DHT22;671;48.972;9.276;2023-04-25T03:41:45;9.80;99.90
1355;DHT22;671;48.972;9.276;2023-04-25T03:44:31;9.80;99.90
1355;DHT22;671;48.972;9.276;2023-04-25T03:47:17;9.70;99.90
1355;DHT22;671;48.972;9.276;2023-04-25T03:50:03;9.70;99.90
1355;DHT22;671;48.972;9.276;2023-04-25T03:52:49;9.70;99.90
1355;DHT22;671;48.972;9.276;2023-04-25T03:55:35;9.80;99.90
1355;DHT22;671;48.972;9.276;2023-04-25T03:58:21;9.70;99.90
1355;DHT22;671;48.972;9.276;2023-04-25T04:01:08;9.80;99.90
1355;DHT22;671;48.972;9.276;2023-04-25T04:03:54;9.80;99.90
1355;DHT22;671;48.972;9.276;2023-04-25T04:06:40;9.80;99.90
1355;DHT22;671;48.972;9.276;2023-04-25T04:09:26;9.80;99.90
1355;DHT22;671;48.972;9.276;2023-04-25T04:12:13;9.70;99.90
1355;DHT22;671;48.972;9.276;2023-04-25T04:14:59;9.80;99.90
1355;DHT22;671;48.972;9.276;2023-04-25T04:17:45;9.80;99.90
1355;DHT22;671;48.972;9.276;2023-04-25T04:20:32;9.80;99.90
1355;DHT22;671;48.972;9.276;2023-04-25T04:23:19;9.80;99.90
1355;DHT22;671;48.972;9.276;2023-04-25T04:26:05;9.70;99.90
1355;DHT22;671;48.972;9.276;2023-04-25T04:28:53;9.70;99.90
1355;DHT22;671;48.972;9.276;2023-04-25T04:31:40;9.70;99.90
1355;DHT22;671;48.972;9.276;2023-04-25T04:34:25;9.70;99.90
1355;DHT22;671;48.972;9.276;2023-04-25T04:37:12;9.70;99.90
1355;DHT22;671;48.972;9.276;2023-04-25T04:39:58;9.70;99.90
1355;DHT22;671;48.972;9.276;2023-04-25T04:42:51;9.70;99.90
1355;DHT22;671;48.972;9.276;2023-04-25T04:45:38;9.70;99.90
1355;DHT22;671;48.972;9.276;2023-04-25T04:48:26;9.70;99.90
1355;DHT22;671;48.972;9.276;2023-04-25T04:51:12;9.80;99.90
1355;DHT22;671;48.972;9.276;2023-04-25T04:53:59;9.80;99.90
1355;DHT22;671;48.972;9.276;2023-04-25T04:56:47;9.90;99.90
1355;DHT22;671;48.972;9.276;2023-04-25T04:59:33;10.00;99.90
1355;DHT22;671;48.972;9.276;2023-04-25T05:02:20;9.90;99.90
1355;DHT22;671;48.972;9.276;2023-04-25T05:05:06;9.90;99.90
1355;DHT22;671;48.972;9.276;2023-04-25T05:07:53;9.90;99.90
1355;DHT22;671;48.972;9.276;2023-04-25T05:10:39;9.80;99.90
1355;DHT22;671;48.972;9.276;2023-04-25T05:13:25;9.80;99.90
1355;DHT22;671;48.972;9.276;2023-04-25T05:16:11;9.80;99.90
1355;DHT22;671;48.972;9.276;2023-04-25T05:18:57;10.00;99.90
1355;DHT22;671;48.972;9.276;2023-04-25T05:21:43;9.90;99.90
1355;DHT22;671;48.972;9.276;2023-04-25T05:24:29;9.90;99.90
1355;DHT22;671;48.972;9.276;2023-04-25T05:27:20;10.00;99.90
1355;DHT22;671;48.972;9.276;2023-04-25T05:30:06;10.00;99.90
1355;DHT22;671;48.972;9.276;2023-04-25T05:32:52;10.10;99.90
1355;DHT22;671;48.972;9.276;2023-04-25T05:35:38;10.20;99.90
1355;DHT22;671;48.972;9.276;2023-04-25T05:38:24;10.30;99.90
1355;DHT22;671;48.972;9.276;2023-04-25T05:41:10;10.30;99.90
1355;DHT22;671;48.972;9.276;2023-04-25T05:43:56;10.40;99.90
1355;DHT22;671;48.972;9.276;2023-04-25T05:46:42;10.40;99.90
1355;DHT22;671;48.972;9.276;2023-04-25T05:49:28;10.40;99.90
1355;DHT22;671;48.972;9.276;2023-04-25T05:52:14;10.50;99.90
1355;DHT22;671;48.972;9.276;2023-04-25T05:55:01;10.40;99.90
1355;DHT22;671;48.972;9.276;2023-04-25T05:57:46;10.50;99.90
1355;DHT22;671;48.972;9.276;2023-04-25T06:00:33;10.50;99.90
1355;DHT22;671;48.972;9.276;2023-04-25T06:03:19;10.60;99.90
1355;DHT22;671;48.972;9.276;2023-04-25T06:06:05;10.70;99.90
1355;DHT22;671;48.972;9.276;2023-04-25T06:08:51;10.80;99.90
1355;DHT22;671;48.972;9.276;2023-04-25T06:11:37;11.10;99.90
1355;DHT22;671;48.972;9.276;2023-04-25T06:14:23;11.30;99.90
1355;DHT22;671;48.972;9.276;2023-04-25T06:17:09;11.40;99.90
1355;DHT22;671;48.972;9.276;2023-04-25T06:19:55;11.50;99.90
1355;DHT22;671;48.972;9.276;2023-04-25T06:22:41;11.50;99.90
1355;DHT22;671;48.972;9.276;2023-04-25T06:25:26;11.60;99.90
1355;DHT22;671;48.972;9.276;2023-04-25T06:28:12;11.70;99.90
1355;DHT22;671;48.972;9.276;2023-04-25T06:30:58;11.70;99.90
1355;DHT22;671;48.972;9.276;2023-04-25T06:33:44;11.80;99.90
1355;DHT22;671;48.972;9.276;2023-04-25T06:36:30;11.90;99.90
1355;DHT22;671;48.972;9.276;2023-04-25T06:39:16;12.10;99.90
1355;DHT22;671;48.972;9.276;2023-04-25T06:42:02;12.10;99.90
1355;DHT22;671;48.972;9.276;2023-04-25T06:44:48;12.30;99.90
1355;DHT22;671;48.972;9.276;2023-04-25T06:47:34;12.40;99.90
1355;DHT22;671;48.972;9.276;2023-04-25T06:50:20;12.50;99.90
1355;DHT22;671;48.972;9.276;2023-04-25T06:53:06;12.50;99.90
1355;DHT22;671;48.972;9.276;2023-04-25T06:55:52;12.50;99.90
1355;DHT22;671;48.972;9.276;2023-04-25T06:58:37;12.30;99.90
1355;DHT22;671;48.972;9.276;2023-04-25T07:01:23;12.20;99.90
1355;DHT22;671;48.972;9.276;2023-04-25T07:04:10;12.10;99.90
1355;DHT22;671;48.972;9.276;2023-04-25T07:06:56;12.10;99.90
1355;DHT22;671;48.972;9.276;2023-04-25T07:09:42;12.10;99.90
1355;DHT22;671;48.972;9.276;2023-04-25T07:12:28;12.10;99.90
1355;DHT22;671;48.972;9.276;2023-04-25T07:15:14;12.00;99.90
1355;DHT22;671;48.972;9.276;2023-04-25T07:18:00;12.00;99.90
1355;DHT22;671;48.972;9.276;2023-04-25T07:20:46;12.00;99.90
1355;DHT22;671;48.972;9.276;2023-04-25T07:23:32;12.00;99.90
1355;DHT22;671;48.972;9.276;2023-04-25T07:26:17;12.00;99.90
1355;DHT22;671;48.972;9.276;2023-04-25T07:29:04;12.00;99.90
1355;DHT22;671;48.972;9.276;2023-04-25T07:31:50;11.90;99.90
1355;DHT22;671;48.972;9.276;2023-04-25T07:34:36;11.80;99.90
1355;DHT22;671;48.972;9.276;2023-04-25T07:37:24;11.60;99.90
1355;DHT22;671;48.972;9.276;2023-04-25T07:40:11;11.60;99.90
1355;DHT22;671;48.972;9.276;2023-04-25T07:42:57;11.60;99.90
1355;DHT22;671;48.972;9.276;2023-04-25T07:45:44;11.60;99.90
1355;DHT22;671;48.972;9.276;2023-04-25T07:48:30;11.40;99.90
1355;DHT22;671;48.972;9.276;2023-04-25T07:51:16;11.20;99.90
1355;DHT22;671;48.972;9.276;2023-04-25T07:54:02;11.20;99.90
1355;DHT22;671;48.972;9.276;2023-04-25T07:56:48;11.10;99.90
1355;DHT22;671;48.972;9.276;2023-04-25T07:59:34;11.10;99.90
1355;DHT22;671;48.972;9.276;2023-04-25T08:02:20;11.20;99.90
1355;DHT22;671;48.972;9.276;2023-04-25T08:05:06;11.30;99.90
1355;DHT22;671;48.972;9.276;2023-04-25T08:07:54;11.50;99.90
1355;DHT22;671;48.972;9.276;2023-04-25T08:10:40;11.50;99.90
1355;DHT22;671;48.972;9.276;2023-04-25T08:13:26;11.60;99.90
1355;DHT22;671;48.972;9.276;2023-04-25T08:16:12;11.70;99.90
1355;DHT22;671;48.972;9.276;2023-04-25T08:18:59;11.80;99.90
1355;DHT22;671;48.972;9.276;2023-04-25T08:21:45;11.80;99.90
1355;DHT22;671;48.972;9.276;2023-04-25T08:24:31;12.00;99.90
1355;DHT22;671;48.972;9.276;2023-04-25T08:27:18;12.10;99.90
1355;DHT22;671;48.972;9.276;2023-04-25T08:30:05;12.10;99.90
1355;DHT22;671;48.972;9.276;2023-04-25T08:32:51;12.10;99.90
1355;DHT22;671;48.972;9.276;2023-04-25T08:35:37;12.00;99.90
1355;DHT22;671;48.972;9.276;2023-04-25T08:38:23;12.00;99.90
1355;DHT22;671;48.972;9.276;2023-04-25T08:41:11;12.00;99.90
1355;DHT22;671;48.972;9.276;2023-04-25T08:43:58;12.10;99.90
1355;DHT22;671;48.972;9.276;2023-04-25T08:46:47;12.10;99.90
1355;DHT22;671;48.972;9.276;2023-04-25T08:49:36;12.10;99.90
1355;DHT22;671;48.972;9.276;2023-04-25T08:52:23;12.10;99.90
1355;DHT22;671;48.972;9.276;2023-04-25T08:55:12;12.30;99.90
1355;DHT22;671;48.972;9.276;2023-04-25T08:57:59;12.30;99.90
1355;DHT22;671;48.972;9.276;2023-04-25T09:00:46;12.30;99.90
1355;DHT22;671;48.972;9.276;2023-04-25T09:03:33;12.50;99.90
1355;DHT22;671;48.972;9.276;2023-04-25T09:06:19;12.60;99.90
1355;DHT22;671;48.972;9.276;2023-04-25T09:09:07;12.70;99.90
1355;DHT22;671;48.972;9.276;2023-04-25T09:11:54;12.70;99.90
1355;DHT22;671;48.972;9.276;2023-04-25T09:14:41;12.80;99.90
1355;DHT22;671;48.972;9.276;2023-04-25T09:17:28;12.80;99.90
1355;DHT22;671;48.972;9.276;2023-04-25T09:20:14;12.80;99.90
1355;DHT22;671;48.972;9.276;2023-04-25T09:23:05;12.80;99.90
1355;DHT22;671;48.972;9.276;2023-04-25T09:25:53;12.90;99.90
1355;DHT22;671;48.972;9.276;2023-04-25T09:28:39;12.80;99.90
1355;DHT22;671;48.972;9.276;2023-04-25T09:31:25;12.70;99.90
1355;DHT22;671;48.972;9.276;2023-04-25T09:34:11;12.60;99.90
1355;DHT22;671;48.972;9.276;2023-04-25T09:37:01;12.60;99.90
1355;DHT22;671;48.972;9.276;2023-04-25T09:39:50;12.50;99.90
1355;DHT22;671;48.972;9.276;2023-04-25T09:42:41;12.40;99.90
1355;DHT22;671;48.972;9.276;2023-04-25T09:45:29;12.40;99.90
1355;DHT22;671;48.972;9.276;2023-04-25T09:48:22;12.50;99.90
1355;DHT22;671;48.972;9.276;2023-04-25T09:51:13;12.60;99.90
1355;DHT22;671;48.972;9.276;2023-04-25T09:53:59;12.80;99.90
1355;DHT22;671;48.972;9.276;2023-04-25T09:56:46;12.90;99.90
1355;DHT22;671;48.972;9.276;2023-04-25T09:59:36;13.00;99.90
1355;DHT22;671;48.972;9.276;2023-04-25T10:02:27;13.10;99.90
1355;DHT22;671;48.972;9.276;2023-04-25T10:05:13;13.30;99.90
1355;DHT22;671;48.972;9.276;2023-04-25T10:08:02;13.40;99.90
1355;DHT22;671;48.972;9.276;2023-04-25T10:10:49;13.40;99.90
1355;DHT22;671;48.972;9.276;2023-04-25T10:13:36;13.40;99.90
1355;DHT22;671;48.972;9.276;2023-04-25T10:16:22;13.10;99.90
1355;DHT22;671;48.972;9.276;2023-04-25T10:19:09;12.60;99.90
1355;DHT22;671;48.972;9.276;2023-04-25T10:22:07;12.00;99.90
1355;DHT22;671;48.972;9.276;2023-04-25T10:24:55;11.60;99.90
1355;DHT22;671;48.972;9.276;2023-04-25T10:27:42;11.20;99.90
1355;DHT22;671;48.972;9.276;2023-04-25T10:30:28;10.80;99.90
1355;DHT22;671;48.972;9.276;2023-04-25T10:33:17;10.40;99.90
1355;DHT22;671;48.972;9.276;2023-04-25T10:36:15;10.20;99.90
1355;DHT22;671;48.972;9.276;2023-04-25T10:39:04;10.20;99.90
1355;DHT22;671;48.972;9.276;2023-04-25T10:41:58;10.10;99.90
1355;DHT22;671;48.972;9.276;2023-04-25T10:45:01;10.10;99.90
1355;DHT22;671;48.972;9.276;2023-04-25T10:47:48;10.20;99.90
1355;DHT22;671;48.972;9.276;2023-04-25T10:50:38;10.30;99.90
1355;DHT22;671;48.972;9.276;2023-04-25T10:53:25;10.40;99.90
1355;DHT22;671;48.972;9.276;2023-04-25T10:56:20;10.50;99.90
1355;DHT22;671;48.972;9.276;2023-04-25T10:59:11;10.70;99.90
1355;DHT22;671;48.972;9.276;2023-04-25T11:01:57;10.80;99.90
1355;DHT22;671;48.972;9.276;2023-04-25T11:04:44;10.90;99.90
1355;DHT22;671;48.972;9.276;2023-04-25T11:10:31;11.10;99.90
1355;DHT22;671;48.972;9.276;2023-04-25T11:13:19;11.20;99.90
1355;DHT22;671;48.972;9.276;2023-04-25T11:16:07;11.30;99.90
1355;DHT22;671;48.972;9.276;2023-04-25T11:18:53;11.40;99.90
1355;DHT22;671;48.972;9.276;2023-04-25T11:21:42;11.40;99.90
1355;DHT22;671;48.972;9.276;2023-04-25T11:24:33;11.50;99.90
1355;DHT22;671;48.972;9.276;2023-04-25T11:27:20;11.60;99.90
1355;DHT22;671;48.972;9.276;2023-04-25T11:30:13;11.70;99.90
1355;DHT22;671;48.972;9.276;2023-04-25T11:33:01;11.80;99.90
1355;DHT22;671;48.972;9.276;2023-04-25T11:35:49;11.80;99.90
1355;DHT22;671;48.972;9.276;2023-04-25T11:38:35;12.00;99.90
1355;DHT22;671;48.972;9.276;2023-04-25T11:41:21;12.20;99.90
1355;DHT22;671;48.972;9.276;2023-04-25T11:44:07;12.40;99.90
1355;DHT22;671;48.972;9.276;2023-04-25T11:46:53;12.40;99.90
1355;DHT22;671;48.972;9.276;2023-04-25T11:49:40;12.40;99.90
1355;DHT22;671;48.972;9.276;2023-04-25T11:52:43;12.40;99.90
1355;DHT22;671;48.972;9.276;2023-04-25T11:55:30;12.50;99.90
1355;DHT22;671;48.972;9.276;2023-04-25T11:58:16;12.50;99.90
1355;DHT22;671;48.972;9.276;2023-04-25T12:01:02;12.40;99.90
1355;DHT22;671;48.972;9.276;2023-04-25T12:03:48;12.40;99.90
1355;DHT22;671;48.972;9.276;2023-04-25T12:06:37;12.40;99.90
1355;DHT22;671;48.972;9.276;2023-04-25T12:09:31;12.40;99.90
1355;DHT22;671;48.972;9.276;2023-04-25T12:12:17;12.50;99.90
1355;DHT22;671;48.972;9.276;2023-04-25T12:15:18;12.60;99.90
1355;DHT22;671;48.972;9.276;2023-04-25T12:18:07;12.90;99.90
1355;DHT22;671;48.972;9.276;2023-04-25T12:20:53;13.20;99.90
1355;DHT22;671;48.972;9.276;2023-04-25T12:23:39;13.50;99.90
1355;DHT22;671;48.972;9.276;2023-04-25T12:26:49;13.60;99.90
1355;DHT22;671;48.972;9.276;2023-04-25T12:29:35;13.60;99.90
1355;DHT22;671;48.972;9.276;2023-04-25T12:32:22;13.60;99.90
1355;DHT22;671;48.972;9.276;2023-04-25T12:35:08;13.60;99.90
1355;DHT22;671;48.972;9.276;2023-04-25T12:37:54;13.50;99.90
1355;DHT22;671;48.972;9.276;2023-04-25T12:40:40;13.60;99.90
1355;DHT22;671;48.972;9.276;2023-04-25T12:43:26;13.70;99.90
1355;DHT22;671;48.972;9.276;2023-04-25T12:46:11;13.90;99.90
1355;DHT22;671;48.972;9.276;2023-04-25T12:48:57;14.00;99.90
1355;DHT22;671;48.972;9.276;2023-04-25T12:51:43;14.10;99.90
1355;DHT22;671;48.972;9.276;2023-04-25T12:54:29;14.00;99.90
1355;DHT22;671;48.972;9.276;2023-04-25T12:57:15;14.20;99.90
1355;DHT22;671;48.972;9.276;2023-04-25T13:00:01;14.20;99.90
1355;DHT22;671;48.972;9.276;2023-04-25T13:02:49;14.10;99.90
1355;DHT22;671;48.972;9.276;2023-04-25T13:05:35;14.00;99.90
1355;DHT22;671;48.972;9.276;2023-04-25T13:08:21;14.10;99.90
1355;DHT22;671;48.972;9.276;2023-04-25T13:11:08;14.20;99.90
1355;DHT22;671;48.972;9.276;2023-04-25T13:13:54;14.00;99.90
1355;DHT22;671;48.972;9.276;2023-04-25T13:16:40;13.80;99.90
1355;DHT22;671;48.972;9.276;2023-04-25T13:19:27;13.80;99.90
1355;DHT22;671;48.972;9.276;2023-04-25T13:22:13;13.70;99.90
1355;DHT22;671;48.972;9.276;2023-04-25T13:25:00;13.60;99.90
1355;DHT22;671;48.972;9.276;2023-04-25T13:27:46;13.40;99.90
1355;DHT22;671;48.972;9.276;2023-04-25T13:30:33;13.40;99.90
1355;DHT22;671;48.972;9.276;2023-04-25T13:33:20;13.30;99.90
1355;DHT22;671;48.972;9.276;2023-04-25T13:36:06;13.30;99.90
1355;DHT22;671;48.972;9.276;2023-04-25T13:38:52;13.60;99.90
1355;DHT22;671;48.972;9.276;2023-04-25T13:41:38;13.60;99.90
1355;DHT22;671;48.972;9.276;2023-04-25T13:44:24;13.90;99.90
1355;DHT22;671;48.972;9.276;2023-04-25T13:47:09;14.30;99.90
1355;DHT22;671;48.972;9.276;2023-04-25T13:49:56;14.30;99.90
1355;DHT22;671;48.972;9.276;2023-04-25T13:52:42;14.10;99.90
1355;DHT22;671;48.972;9.276;2023-04-25T13:55:28;14.00;99.90
1355;DHT22;671;48.972;9.276;2023-04-25T13:58:15;14.10;99.90
1355;DHT22;671;48.972;9.276;2023-04-25T14:01:01;14.20;99.90
1355;DHT22;671;48.972;9.276;2023-04-25T14:03:47;14.20;99.90
1355;DHT22;671;48.972;9.276;2023-04-25T14:06:34;14.50;99.90
1355;DHT22;671;48.972;9.276;2023-04-25T14:09:21;14.50;99.90
1355;DHT22;671;48.972;9.276;2023-04-25T14:12:11;14.60;99.90
1355;DHT22;671;48.972;9.276;2023-04-25T14:14:57;14.60;99.90
1355;DHT22;671;48.972;9.276;2023-04-25T14:17:42;14.60;99.90
1355;DHT22;671;48.972;9.276;2023-04-25T14:20:30;14.50;99.90
1355;DHT22;671;48.972;9.276;2023-04-25T14:23:15;14.60;99.90
1355;DHT22;671;48.972;9.276;2023-04-25T14:26:03;14.60;99.90
1355;DHT22;671;48.972;9.276;2023-04-25T14:28:50;14.80;99.90
1355;DHT22;671;48.972;9.276;2023-04-25T14:31:36;15.10;99.90
1355;DHT22;671;48.972;9.276;2023-04-25T14:34:23;15.40;99.90
1355;DHT22;671;48.972;9.276;2023-04-25T14:37:09;15.30;99.90
1355;DHT22;671;48.972;9.276;2023-04-25T14:39:55;15.20;99.90
1355;DHT22;671;48.972;9.276;2023-04-25T14:42:41;14.80;99.90
1355;DHT22;671;48.972;9.276;2023-04-25T14:45:27;14.70;99.90
1355;DHT22;671;48.972;9.276;2023-04-25T14:48:13;14.50;99.90
1355;DHT22;671;48.972;9.276;2023-04-25T14:50:59;14.50;99.90
1355;DHT22;671;48.972;9.276;2023-04-25T14:53:46;14.50;99.90
1355;DHT22;671;48.972;9.276;2023-04-25T14:56:32;14.50;99.90
1355;DHT22;671;48.972;9.276;2023-04-25T14:59:18;14.40;99.90
1355;DHT22;671;48.972;9.276;2023-04-25T15:02:04;14.40;99.90
1355;DHT22;671;48.972;9.276;2023-04-25T15:04:50;14.50;99.90
1355;DHT22;671;48.972;9.276;2023-04-25T15:07:36;14.60;99.90
1355;DHT22;671;48.972;9.276;2023-04-25T15:10:22;14.70;99.90
1355;DHT22;671;48.972;9.276;2023-04-25T15:13:08;14.70;99.90
1355;DHT22;671;48.972;9.276;2023-04-25T15:15:56;14.70;99.90
1355;DHT22;671;48.972;9.276;2023-04-25T15:18:42;14.60;99.90
1355;DHT22;671;48.972;9.276;2023-04-25T15:21:27;14.50;99.90
1355;DHT22;671;48.972;9.276;2023-04-25T15:24:13;14.60;99.90
1355;DHT22;671;48.972;9.276;2023-04-25T15:27:00;14.60;99.90
1355;DHT22;671;48.972;9.276;2023-04-25T15:29:46;14.50;99.90
1355;DHT22;671;48.972;9.276;2023-04-25T15:32:33;14.50;99.90
1355;DHT22;671;48.972;9.276;2023-04-25T15:35:19;14.50;99.90
1355;DHT22;671;48.972;9.276;2023-04-25T15:38:05;14.60;99.90
1355;DHT22;671;48.972;9.276;2023-04-25T15:40:52;14.60;99.90
1355;DHT22;671;48.972;9.276;2023-04-25T15:43:38;14.60;99.90
1355;DHT22;671;48.972;9.276;2023-04-25T15:46:25;14.60;99.90
1355;DHT22;671;48.972;9.276;2023-04-25T15:49:11;14.50;99.90
1355;DHT22;671;48.972;9.276;2023-04-25T15:51:57;14.40;99.90
1355;DHT22;671;48.972;9.276;2023-04-25T15:54:43;14.20;99.90
1355;DHT22;671;48.972;9.276;2023-04-25T15:57:31;14.10;99.90
1355;DHT22;671;48.972;9.276;2023-04-25T16:00:18;14.00;99.90
1355;DHT22;671;48.972;9.276;2023-04-25T16:03:05;13.90;99.90
1355;DHT22;671;48.972;9.276;2023-04-25T16:05:52;13.80;99.90
1355;DHT22;671;48.972;9.276;2023-04-25T16:08:38;13.80;99.90
1355;DHT22;671;48.972;9.276;2023-04-25T16:11:24;13.80;99.90
1355;DHT22;671;48.972;9.276;2023-04-25T16:14:10;13.80;99.90
1355;DHT22;671;48.972;9.276;2023-04-25T16:16:56;13.80;99.90
1355;DHT22;671;48.972;9.276;2023-04-25T16:19:42;13.70;99.90
1355;DHT22;671;48.972;9.276;2023-04-25T16:22:28;13.70;99.90
1355;DHT22;671;48.972;9.276;2023-04-25T16:25:14;13.70;99.90
1355;DHT22;671;48.972;9.276;2023-04-25T16:28:00;13.70;99.90
1355;DHT22;671;48.972;9.276;2023-04-25T16:30:46;13.70;99.90
1355;DHT22;671;48.972;9.276;2023-04-25T16:33:33;13.60;99.90
1355;DHT22;671;48.972;9.276;2023-04-25T16:36:20;13.60;99.90
1355;DHT22;671;48.972;9.276;2023-04-25T16:39:06;13.50;99.90
1355;DHT22;671;48.972;9.276;2023-04-25T16:41:53;13.50;99.90
1355;DHT22;671;48.972;9.276;2023-04-25T16:44:39;13.40;99.90
1355;DHT22;671;48.972;9.276;2023-04-25T16:47:25;13.30;99.90
1355;DHT22;671;48.972;9.276;2023-04-25T16:50:12;13.20;99.90
1355;DHT22;671;48.972;9.276;2023-04-25T16:52:58;13.20;99.90
1355;DHT22;671;48.972;9.276;2023-04-25T16:55:45;13.20;99.90
1355;DHT22;671;48.972;9.276;2023-04-25T16:58:32;13.10;99.90
1355;DHT22;671;48.972;9.276;2023-04-25T17:01:18;13.00;99.90
1355;DHT22;671;48.972;9.276;2023-04-25T17:04:05;12.90;99.90
1355;DHT22;671;48.972;9.276;2023-04-25T17:06:52;12.80;99.90
1355;DHT22;671;48.972;9.276;2023-04-25T17:09:38;12.80;99.90
1355;DHT22;671;48.972;9.276;2023-04-25T17:12:24;12.70;99.90
1355;DHT22;671;48.972;9.276;2023-04-25T17:15:10;12.60;99.90
1355;DHT22;671;48.972;9.276;2023-04-25T17:17:56;12.50;99.90
1355;DHT22;671;48.972;9.276;2023-04-25T17:20:42;12.30;99.90
1355;DHT22;671;48.972;9.276;2023-04-25T17:23:28;12.20;99.90
1355;DHT22;671;48.972;9.276;2023-04-25T17:26:16;12.20;99.90
1355;DHT22;671;48.972;9.276;2023-04-25T17:29:02;12.10;99.90
1355;DHT22;671;48.972;9.276;2023-04-25T17:31:49;12.10;99.90
1355;DHT22;671;48.972;9.276;2023-04-25T17:34:34;11.90;99.90
1355;DHT22;671;48.972;9.276;2023-04-25T17:37:22;11.90;99.90
1355;DHT22;671;48.972;9.276;2023-04-25T17:40:08;11.80;99.90
1355;DHT22;671;48.972;9.276;2023-04-25T17:42:56;11.60;99.90
1355;DHT22;671;48.972;9.276;2023-04-25T17:45:42;11.60;99.90
1355;DHT22;671;48.972;9.276;2023-04-25T17:48:28;11.60;99.90
1355;DHT22;671;48.972;9.276;2023-04-25T17:51:16;11.60;99.90
1355;DHT22;671;48.972;9.276;2023-04-25T17:54:02;11.50;99.90
1355;DHT22;671;48.972;9.276;2023-04-25T17:56:48;11.40;99.90
1355;DHT22;671;48.972;9.276;2023-04-25T17:59:34;11.30;99.90
1355;DHT22;671;48.972;9.276;2023-04-25T18:02:20;11.30;99.90
1355;DHT22;671;48.972;9.276;2023-04-25T18:05:06;11.20;99.90
1355;DHT22;671;48.972;9.276;2023-04-25T18:07:55;11.10;99.90
1355;DHT22;671;48.972;9.276;2023-04-25T18:10:41;10.90;99.90
1355;DHT22;671;48.972;9.276;2023-04-25T18:13:27;10.70;99.90
1355;DHT22;671;48.972;9.276;2023-04-25T18:16:14;10.70;99.90
1355;DHT22;671;48.972;9.276;2023-04-25T18:19:00;10.60;99.90
1355;DHT22;671;48.972;9.276;2023-04-25T18:21:52;10.50;99.90
1355;DHT22;671;48.972;9.276;2023-04-25T18:24:39;10.50;99.90
1355;DHT22;671;48.972;9.276;2023-04-25T18:27:24;10.40;99.90
1355;DHT22;671;48.972;9.276;2023-04-25T18:30:11;10.40;99.90
1355;DHT22;671;48.972;9.276;2023-04-25T18:32:57;10.40;99.90
1355;DHT22;671;48.972;9.276;2023-04-25T18:35:43;10.30;99.90